Time;durP1;ratioP1;P1;durP2;ratioP2;P2;SDS_P1;SDS_P2;PMS_P1;PMS_P2;Temp;Humidity;BMP_temperature;BMP_pressure;BME280_temperature;BME280_humidity;BME280_pressure;Samples;Min_cycle;Max_cycle;Signal;HPM_P1;HPM_P2
2022/03/17 00:01:40;;;;;;;11.98;9.05;;;;;;;7.58;76.13;99111.28;4142374;28;20226;-56
2022/03/17 00:03:42;;;;;;;9.45;8.50;;;;;;;7.55;76.41;99106.28;4158539;28;20228;-57
2022/03/17 00:05:44;;;;;;;10.25;9.35;;;;;;;7.54;76.66;99107.28;4143556;28;20392;-56
2022/03/17 00:07:46;;;;;;;10.55;9.55;;;;;;;7.54;76.52;99101.84;4140343;28;20205;-57
2022/03/17 00:09:48;;;;;;;9.57;8.38;;;;;;;7.52;76.77;99102.09;4140435;28;20210;-57
2022/03/17 00:11:50;;;;;;;11.35;10.13;;;;;;;7.53;76.47;99102.91;4141303;28;20208;-56
2022/03/17 00:13:52;;;;;;;9.73;8.85;;;;;;;7.53;76.75;99102.91;4142887;28;20209;-56
2022/03/17 00:15:54;;;;;;;9.65;8.65;;;;;;;7.55;76.32;99100.81;4143961;28;20709;-57
2022/03/17 00:17:57;;;;;;;9.75;8.85;;;;;;;7.54;76.05;99099.13;4154985;28;20307;-56
2022/03/17 00:19:58;;;;;;;10.30;9.50;;;;;;;7.54;75.98;99093.69;4129807;28;20216;-57
2022/03/17 00:22:00;;;;;;;10.68;9.20;;;;;;;7.54;76.46;99094.53;4172749;28;21125;-57
2022/03/17 00:24:03;;;;;;;9.77;8.82;;;;;;;7.58;76.82;99094.94;4140487;28;20237;-57
2022/03/17 00:26:05;;;;;;;10.98;9.88;;;;;;;7.63;75.81;99093.22;4144848;28;20213;-56
2022/03/17 00:28:07;;;;;;;11.98;10.85;;;;;;;7.66;75.97;99083.78;4142273;28;20581;-57
2022/03/17 00:30:08;;;;;;;10.23;9.23;;;;;;;7.65;75.83;99091.13;4141081;28;20253;-57
2022/03/17 00:32:10;;;;;;;13.10;10.88;;;;;;;7.70;75.66;99093.19;4138402;28;20769;-56
2022/03/17 00:34:12;;;;;;;10.07;9.15;;;;;;;7.70;75.83;99093.19;4144931;28;20202;-57
2022/03/17 00:36:14;;;;;;;12.68;9.73;;;;;;;7.70;76.17;99093.19;4142115;28;20292;-57
2022/03/17 00:38:17;;;;;;;11.10;10.02;;;;;;;7.67;75.75;99094.47;4142978;28;20221;-56
2022/03/17 00:40:19;;;;;;;10.85;9.88;;;;;;;7.66;75.96;99097.41;4137550;28;20256;-57
2022/03/17 00:42:22;;;;;;;9.70;8.73;;;;;;;7.66;75.98;99102.84;4125496;28;20210;-57
2022/03/17 00:44:24;;;;;;;9.07;8.23;;;;;;;7.67;75.72;99099.06;4141660;28;20633;-56
2022/03/17 00:46:26;;;;;;;9.95;8.93;;;;;;;7.65;75.47;99093.84;4141424;28;20246;-56
2022/03/17 00:48:29;;;;;;;11.40;10.43;;;;;;;7.67;76.16;99109.97;4127185;28;20209;-57
2022/03/17 00:50:31;;;;;;;9.55;8.68;;;;;;;7.64;76.25;99105.81;4141025;28;20256;-56
2022/03/17 00:52:33;;;;;;;9.48;8.57;;;;;;;7.65;75.87;99106.63;4143278;28;20237;-56
2022/03/17 00:54:39;;;;;;;8.13;7.45;;;;;;;7.65;76.28;99106.63;4143830;28;20205;-56
2022/03/17 00:56:40;;;;;;;9.75;8.82;;;;;;;7.62;76.06;99107.06;4145289;28;20240;-57
2022/03/17 00:58:45;;;;;;;11.23;10.23;;;;;;;7.62;76.30;99107.88;4141787;28;20305;-56
2022/03/17 01:00:48;;;;;;;11.10;9.98;;;;;;;7.64;76.19;99110.41;4126743;28;20241;-56
2022/03/17 01:02:53;;;;;;;10.80;9.77;;;;;;;7.66;75.90;99108.28;4157335;28;20672;-56
2022/03/17 01:04:55;;;;;;;10.00;9.10;;;;;;;7.61;76.63;99110.84;4153911;28;20213;-56
2022/03/17 01:06:57;;;;;;;10.80;9.82;;;;;;;7.60;76.41;99111.88;4138745;28;20236;-57
2022/03/17 01:08:59;;;;;;;9.05;7.35;;;;;;;7.59;76.01;99110.22;4140896;28;20260;-57
2022/03/17 01:11:00;;;;;;;10.43;9.45;;;;;;;7.56;76.02;99103.31;4138832;28;20236;-57
2022/03/17 01:13:03;;;;;;;8.38;7.55;;;;;;;7.57;76.50;99109.59;4139753;28;20248;-57
2022/03/17 01:15:05;;;;;;;9.48;8.60;;;;;;;7.53;76.22;99108.34;4172614;28;20216;-57
2022/03/17 01:17:07;;;;;;;8.70;7.90;;;;;;;7.49;76.55;99105.22;4172270;28;20207;-56
2022/03/17 01:19:09;;;;;;;11.05;9.98;;;;;;;7.47;76.71;99110.06;4144853;28;20213;-57
2022/03/17 01:21:11;;;;;;;9.27;8.35;;;;;;;7.46;76.65;99107.53;4144246;28;20221;-57
2022/03/17 01:23:12;;;;;;;8.60;7.80;;;;;;;7.45;76.64;99111.31;4143355;28;20242;-55
2022/03/17 01:25:15;;;;;;;8.60;7.80;;;;;;;7.45;76.70;99117.63;4136724;28;20701;-55
2022/03/17 01:27:20;;;;;;;9.45;8.60;;;;;;;7.45;76.74;99116.75;4140227;28;20218;-56
2022/03/17 01:29:21;;;;;;;8.23;7.40;;;;;;;7.45;76.69;99122.22;4171788;28;21903;-56
2022/03/17 01:31:23;;;;;;;9.18;8.35;;;;;;;7.42;77.02;99125.38;4140877;28;20296;-56
2022/03/17 01:33:25;;;;;;;9.02;8.25;;;;;;;7.42;76.27;99122.66;4155350;28;20216;-56
2022/03/17 01:35:27;;;;;;;14.18;8.40;;;;;;;7.37;76.79;99125.19;4139497;28;20236;-56
2022/03/17 01:37:29;;;;;;;10.13;8.30;;;;;;;7.38;76.50;99121.41;4141491;28;20240;-55
2022/03/17 01:39:31;;;;;;;11.15;10.05;;;;;;;7.34;76.84;99131.03;4137699;28;20216;-57
2022/03/17 01:41:33;;;;;;;9.02;8.13;;;;;;;7.34;76.33;99131.88;4142953;28;20962;-55
2022/03/17 01:43:35;;;;;;;8.90;8.00;;;;;;;7.33;76.47;99129.38;4141338;28;21044;-56
2022/03/17 01:45:37;;;;;;;8.73;7.95;;;;;;;7.30;76.45;99124.38;4139013;28;20217;-56
2022/03/17 01:47:39;;;;;;;9.52;8.68;;;;;;;7.31;76.90;99128.75;4142368;28;21037;-56
2022/03/17 01:49:41;;;;;;;10.10;9.13;;;;;;;7.30;77.00;99129.81;4141349;28;20244;-55
2022/03/17 01:51:45;;;;;;;8.95;8.25;;;;;;;7.35;76.94;99132.72;4145355;28;20342;-57
2022/03/17 01:53:46;;;;;;;9.13;8.27;;;;;;;7.36;76.27;99134.41;4139047;28;20633;-56
2022/03/17 01:55:49;;;;;;;10.82;9.73;;;;;;;7.33;76.45;99129.38;4157254;28;20209;-57
2022/03/17 01:57:51;;;;;;;9.68;8.73;;;;;;;7.33;76.79;99129.38;4140907;28;20275;-56
2022/03/17 01:59:53;;;;;;;9.05;8.25;;;;;;;7.33;76.78;99137.53;4133531;28;20221;-57
2022/03/17 02:01:55;;;;;;;10.25;9.25;;;;;;;7.31;76.81;99142.38;4134591;28;21371;-56
2022/03/17 02:03:57;;;;;;;11.15;10.15;;;;;;;7.31;76.87;99131.47;4152778;28;20209;-56
2022/03/17 02:05:59;;;;;;;8.60;7.88;;;;;;;7.30;76.68;99143.41;4173795;28;20242;-56
2022/03/17 02:08:01;;;;;;;11.00;10.02;;;;;;;7.28;77.10;99138.19;4143297;28;20225;-57
2022/03/17 02:10:04;;;;;;;10.38;9.30;;;;;;;7.26;77.01;99134.00;4142340;28;20823;-57
2022/03/17 02:14:28;;;;;;;10.63;9.63;;;;;;;7.31;76.82;99132.34;4157759;28;20235;-57
2022/03/17 02:16:30;;;;;;;10.50;9.60;;;;;;;7.32;76.84;99138.59;4123606;28;20238;-57
2022/03/17 02:18:32;;;;;;;11.05;9.93;;;;;;;7.31;77.02;99126.03;4139069;28;20225;-56
2022/03/17 02:20:35;;;;;;;10.73;9.73;;;;;;;7.29;77.22;99134.41;4140969;28;20283;-56
2022/03/17 02:22:41;;;;;;;13.27;10.15;;;;;;;7.27;77.67;99135.66;4157002;28;20278;-56
2022/03/17 02:27:05;;;;;;;10.40;9.60;;;;;;;7.31;77.18;99137.78;4154967;28;20625;-56
2022/03/17 02:29:06;;;;;;;10.07;9.02;;;;;;;7.28;76.88;99127.28;4138205;28;20216;-57
2022/03/17 02:31:08;;;;;;;11.45;10.35;;;;;;;7.30;76.58;99140.69;4134841;28;20229;-55
2022/03/17 02:33:11;;;;;;;9.63;8.82;;;;;;;7.28;77.42;99138.19;4143533;28;20213;-56
2022/03/17 02:35:20;;;;;;;10.23;9.25;;;;;;;7.29;77.40;99128.97;4138372;28;20209;-56
2022/03/17 02:37:24;;;;;;;9.65;8.75;;;;;;;7.28;77.09;99126.47;4125919;28;20233;-55
2022/03/17 02:39:25;;;;;;;9.57;8.63;;;;;;;7.31;76.82;99136.94;4124549;28;20677;-56
2022/03/17 02:41:27;;;;;;;11.25;10.05;;;;;;;7.30;76.67;99135.25;4122021;28;20261;-56
2022/03/17 02:43:28;;;;;;;10.88;9.43;;;;;;;7.29;77.09;99130.88;4139535;28;20233;-56
2022/03/17 02:45:31;;;;;;;10.40;9.50;;;;;;;7.33;77.14;99135.66;4137636;28;20327;-57
2022/03/17 02:47:33;;;;;;;8.77;7.97;;;;;;;7.32;76.77;99138.59;4137786;28;20811;-56
2022/03/17 02:49:35;;;;;;;9.32;8.52;;;;;;;7.32;76.74;99138.59;4138012;28;20229;-56
2022/03/17 02:51:38;;;;;;;9.30;8.50;;;;;;;7.30;76.78;99135.25;4156349;28;20251;-56
2022/03/17 02:53:39;;;;;;;9.38;7.88;;;;;;;7.28;76.32;99132.75;4138933;28;20206;-56
2022/03/17 02:55:43;;;;;;;8.95;8.02;;;;;;;7.27;76.55;99132.94;4142007;28;20702;-56
2022/03/17 02:57:45;;;;;;;9.90;9.00;;;;;;;7.28;76.82;99134.66;4137201;28;20220;-56
2022/03/17 02:59:48;;;;;;;10.75;9.75;;;;;;;7.28;76.87;99140.09;4122546;28;20218;-56
2022/03/17 03:01:50;;;;;;;10.85;9.85;;;;;;;7.32;76.48;99138.59;4138519;28;20220;-55
2022/03/17 03:03:53;;;;;;;9.77;8.77;;;;;;;7.28;77.08;99142.81;4123195;28;20253;-57
2022/03/17 03:05:55;;;;;;;10.00;9.00;;;;;;;7.22;77.71;99135.50;4156647;28;20331;-57
2022/03/17 03:07:59;;;;;;;12.45;10.02;;;;;;;7.23;77.22;99134.44;4143706;28;20233;-56
2022/03/17 03:10:02;;;;;;;11.48;10.48;;;;;;;7.26;77.21;99140.28;4169687;28;20204;-57
2022/03/17 03:12:04;;;;;;;10.80;9.80;;;;;;;7.23;76.78;99140.69;4137631;28;20588;-57
2022/03/17 03:14:07;;;;;;;11.38;10.32;;;;;;;7.21;77.45;99142.00;4140719;28;20645;-57
2022/03/17 03:16:09;;;;;;;8.68;7.88;;;;;;;7.22;76.95;99143.66;4154266;28;20213;-56
2022/03/17 03:18:11;;;;;;;9.75;8.90;;;;;;;7.21;77.51;99144.72;4136463;28;20272;-55
2022/03/17 03:20:12;;;;;;;8.82;7.95;;;;;;;7.19;77.17;99144.91;4136854;28;21287;-56
2022/03/17 03:22:14;;;;;;;8.95;8.13;;;;;;;7.27;77.52;99139.25;4142006;28;20206;-57
2022/03/17 03:24:16;;;;;;;10.07;9.07;;;;;;;7.21;76.83;99140.09;4138443;28;21140;-57
2022/03/17 03:26:18;;;;;;;9.55;8.65;;;;;;;7.22;77.27;99144.47;4139237;28;20217;-56
2022/03/17 03:28:20;;;;;;;11.27;10.27;;;;;;;7.24;76.76;99153.28;4138894;28;21142;-56
2022/03/17 03:30:22;;;;;;;9.20;8.40;;;;;;;7.22;76.96;99154.56;4154908;28;20232;-56
2022/03/17 03:32:25;;;;;;;9.38;8.55;;;;;;;7.25;76.89;99148.66;4141145;28;20631;-57
2022/03/17 03:34:27;;;;;;;7.70;6.97;;;;;;;7.26;77.28;99147.63;4139718;28;20676;-57
2022/03/17 03:38:50;;;;;;;9.82;8.90;;;;;;;7.20;77.59;99159.34;4139413;28;20695;-57
2022/03/17 03:40:52;;;;;;;8.38;7.68;;;;;;;7.24;77.45;99168.78;4121835;28;20226;-57
2022/03/17 03:42:54;;;;;;;11.00;10.05;;;;;;;7.22;77.62;99177.16;4168163;28;20205;-56
2022/03/17 03:44:56;;;;;;;10.75;9.80;;;;;;;7.32;77.50;99169.38;4153661;28;20296;-57
2022/03/17 03:46:57;;;;;;;11.35;10.23;;;;;;;7.18;78.09;99158.72;4152178;28;20241;-57
2022/03/17 03:48:59;;;;;;;10.60;9.68;;;;;;;7.16;77.88;99169.00;4149070;28;20263;-57
2022/03/17 03:51:01;;;;;;;9.88;8.98;;;;;;;7.16;77.51;99177.16;4137560;28;20239;-56
2022/03/17 03:53:03;;;;;;;10.52;9.63;;;;;;;7.17;78.00;99178.84;4140784;28;20206;-56
2022/03/17 03:55:06;;;;;;;11.23;10.10;;;;;;;7.17;77.26;99178.84;4136398;28;20652;-55
2022/03/17 03:57:08;;;;;;;10.70;9.70;;;;;;;7.16;77.21;99183.44;4126841;28;20226;-57
2022/03/17 03:59:13;;;;;;;11.10;8.82;;;;;;;7.20;77.08;99186.56;4141269;28;20857;-56
2022/03/17 04:01:15;;;;;;;10.70;9.60;;;;;;;7.16;77.91;99179.88;4156996;28;20769;-56
2022/03/17 04:03:17;;;;;;;10.70;9.70;;;;;;;7.12;78.15;99175.91;4142616;28;20205;-57
2022/03/17 04:05:20;;;;;;;11.07;10.07;;;;;;;7.07;78.30;99173.81;4143647;28;20209;-57
2022/03/17 04:07:22;;;;;;;12.30;11.10;;;;;;;7.18;77.59;99169.63;4125577;28;20210;-56
2022/03/17 04:09:26;;;;;;;10.90;9.93;;;;;;;7.14;77.76;99147.44;4157794;28;20211;-56
2022/03/17 04:11:28;;;;;;;10.30;9.35;;;;;;;7.10;78.43;99154.34;4142158;28;20279;-56
2022/03/17 04:13:29;;;;;;;10.60;8.55;;;;;;;7.18;77.71;99185.94;4155626;28;20217;-57
2022/03/17 04:15:31;;;;;;;9.93;9.10;;;;;;;7.16;78.14;99193.50;4143400;28;20240;-56
2022/03/17 04:17:33;;;;;;;8.77;7.90;;;;;;;7.09;77.92;99188.03;4163983;28;20264;-56
2022/03/17 04:19:35;;;;;;;9.35;8.55;;;;;;;7.10;78.42;99184.28;4142804;28;20272;-56
2022/03/17 04:21:37;;;;;;;10.88;9.77;;;;;;;7.09;77.94;99181.78;4138920;28;20225;-56
2022/03/17 04:23:38;;;;;;;10.82;9.80;;;;;;;7.11;78.42;99206.91;4144468;28;20244;-56
2022/03/17 04:25:44;;;;;;;9.82;8.82;;;;;;;7.15;78.37;99191.81;4146411;28;20260;-55
2022/03/17 04:27:46;;;;;;;10.00;9.05;;;;;;;7.06;78.22;99193.06;4145281;28;20201;-57
2022/03/17 04:29:47;;;;;;;10.48;9.48;;;;;;;7.06;78.56;99195.81;4144239;28;20205;-57
2022/03/17 04:31:49;;;;;;;11.52;10.20;;;;;;;7.08;78.24;99199.16;4144533;28;20244;-55
2022/03/17 04:33:51;;;;;;;8.70;7.88;;;;;;;7.09;77.77;99203.56;4140737;28;20300;-56
2022/03/17 04:35:53;;;;;;;10.50;9.50;;;;;;;7.09;78.33;99203.56;4142466;28;20648;-56
2022/03/17 04:37:54;;;;;;;10.52;9.02;;;;;;;7.11;77.78;99198.72;4139036;28;20207;-56
2022/03/17 04:39:56;;;;;;;9.57;8.68;;;;;;;7.14;77.87;99206.47;4142096;28;20779;-56
2022/03/17 04:41:58;;;;;;;10.68;9.60;;;;;;;7.16;77.52;99218.00;4139628;28;20584;-56
2022/03/17 04:44:00;;;;;;;10.80;9.77;;;;;;;7.14;77.87;99218.19;4136511;28;20230;-56
2022/03/17 04:46:02;;;;;;;9.88;8.93;;;;;;;7.15;77.73;99219.88;4141970;28;20268;-56
2022/03/17 04:48:04;;;;;;;10.73;9.80;;;;;;;7.16;77.83;99216.09;4141772;28;20228;-55
2022/03/17 04:50:06;;;;;;;10.27;9.27;;;;;;;7.14;77.54;99217.34;4137113;28;20225;-55
2022/03/17 04:53:27;;;;;;;8.48;7.75;;;;;;;7.12;77.59;99220.31;4170163;28;20205;-55
2022/03/17 04:54:30;;;;;;;11.07;10.07;;;;;;;7.13;77.17;99221.13;4168768;28;20209;-56
2022/03/17 04:56:32;;;;;;;11.48;10.27;;;;;;;7.17;77.56;99236.00;4140496;28;20237;-57
2022/03/17 04:58:35;;;;;;;9.93;8.95;;;;;;;7.13;77.91;99234.72;4140605;28;20256;-56
2022/03/17 05:00:37;;;;;;;11.80;10.65;;;;;;;7.16;77.74;99242.47;4153079;28;20274;-56
2022/03/17 05:02:38;;;;;;;10.40;9.40;;;;;;;7.20;77.71;99249.16;4140378;28;20639;-56
2022/03/17 05:04:40;;;;;;;9.93;9.02;;;;;;;7.15;77.78;99251.69;4141425;28;20325;-56
2022/03/17 05:06:42;;;;;;;9.35;8.52;;;;;;;7.16;77.50;99253.38;4141442;28;20205;-57
2022/03/17 05:08:43;;;;;;;10.82;9.73;;;;;;;7.13;77.31;99256.50;4141074;28;20277;-57
2022/03/17 05:10:47;;;;;;;9.73;8.90;;;;;;;7.16;77.34;99258.81;4136838;28;20264;-56
2022/03/17 05:12:49;;;;;;;12.20;10.90;;;;;;;7.13;77.51;99251.06;4139530;28;20206;-56
2022/03/17 05:14:51;;;;;;;10.95;9.95;;;;;;;7.18;77.61;99257.56;4157504;28;20311;-56
2022/03/17 05:16:52;;;;;;;12.27;11.15;;;;;;;7.15;77.49;99262.59;4159152;28;20614;-57
2022/03/17 05:18:54;;;;;;;10.32;9.38;;;;;;;7.13;77.25;99264.66;4144555;28;20235;-56
2022/03/17 05:20:56;;;;;;;11.45;10.35;;;;;;;7.10;77.79;99259.66;4140088;28;20230;-56
2022/03/17 05:22:58;;;;;;;12.88;11.68;;;;;;;7.07;77.47;99262.78;4139396;28;20228;-56
2022/03/17 05:24:59;;;;;;;11.13;10.02;;;;;;;7.07;77.68;99276.38;4153958;28;20224;-55
2022/03/17 05:27:01;;;;;;;10.25;9.27;;;;;;;7.05;77.99;99278.47;4138174;28;20643;-56
2022/03/17 05:29:03;;;;;;;12.30;10.75;;;;;;;7.05;77.86;99279.34;4157893;28;20618;-56
2022/03/17 05:31:04;;;;;;;9.18;8.38;;;;;;;7.02;78.06;99285.19;4139103;28;20280;-55
2022/03/17 05:33:11;;;;;;;11.30;10.27;;;;;;;7.06;78.54;99285.59;4138616;28;20206;-55
2022/03/17 05:35:14;;;;;;;11.30;10.30;;;;;;;7.12;77.51;99284.75;4158068;28;20684;-58
2022/03/17 05:37:18;;;;;;;10.65;9.65;;;;;;;7.05;78.21;99289.38;4140207;28;20206;-58
2022/03/17 05:39:20;;;;;;;11.90;10.70;;;;;;;7.05;77.97;99289.38;4141360;28;20763;-58
2022/03/17 05:41:22;;;;;;;12.43;11.23;;;;;;;7.03;78.35;99296.91;4142873;28;20256;-58
2022/03/17 05:43:23;;;;;;;9.57;8.63;;;;;;;7.05;78.06;99305.69;4145346;28;20210;-58
2022/03/17 05:45:26;;;;;;;11.32;8.80;;;;;;;7.08;77.79;99302.56;4145437;28;20215;-58
2022/03/17 05:47:40;;;;;;;10.18;9.20;;;;;;;7.09;77.79;99304.25;4140660;28;20225;-57
2022/03/17 05:49:41;;;;;;;12.07;10.98;;;;;;;7.07;78.59;99303.59;4142700;28;20616;-57
2022/03/17 05:51:43;;;;;;;8.77;7.97;;;;;;;7.05;77.96;99300.25;4149037;28;20271;-58
2022/03/17 05:53:45;;;;;;;10.07;9.07;;;;;;;7.03;77.71;99302.34;4139728;28;20604;-57
2022/03/17 05:55:46;;;;;;;8.85;7.97;;;;;;;7.06;77.46;99307.38;4139724;28;20200;-57
2022/03/17 05:57:49;;;;;;;10.05;9.05;;;;;;;7.08;78.18;99305.28;4144520;28;20300;-56
2022/03/17 05:59:51;;;;;;;9.57;8.57;;;;;;;7.10;78.04;99314.06;4142989;28;20229;-54
2022/03/17 06:01:54;;;;;;;12.57;11.45;;;;;;;6.96;78.40;99315.13;4154827;28;20240;-55
2022/03/17 06:04:16;;;;;;;11.27;10.40;;;;;;;7.01;78.16;99315.31;4145226;28;20229;-52
2022/03/17 06:06:18;;;;;;;11.68;10.65;;;;;;;7.04;78.60;99313.03;4157472;28;20204;-54
2022/03/17 06:08:19;;;;;;;11.23;10.25;;;;;;;7.09;78.01;99324.09;4139109;28;20233;-52
2022/03/17 06:10:27;;;;;;;10.15;9.23;;;;;;;7.14;78.01;99331.63;4143773;28;20293;-54
2022/03/17 06:12:28;;;;;;;12.02;10.90;;;;;;;7.02;78.17;99322.44;4141061;28;20684;-54
2022/03/17 06:14:33;;;;;;;11.98;11.00;;;;;;;6.99;78.47;99322.84;4139855;28;20208;-52
2022/03/17 06:16:37;;;;;;;10.13;9.23;;;;;;;7.05;78.45;99328.31;4142543;28;20686;-52
2022/03/17 06:18:40;;;;;;;11.65;10.57;;;;;;;7.00;78.18;99325.38;4145790;28;20201;-52
2022/03/17 06:20:41;;;;;;;10.82;9.73;;;;;;;7.01;78.03;99328.91;4129354;28;20230;-52
2022/03/17 06:22:45;;;;;;;11.00;10.02;;;;;;;7.00;78.11;99330.81;4159914;28;20209;-52
2022/03/17 06:24:47;;;;;;;12.93;11.63;;;;;;;7.01;78.40;99337.06;4174562;28;20208;-52
2022/03/17 06:26:50;;;;;;;10.98;9.63;;;;;;;7.07;78.08;99331.66;4141175;28;20639;-53
2022/03/17 06:28:51;;;;;;;10.88;9.85;;;;;;;7.08;77.81;99337.94;4139381;28;20221;-53
2022/03/17 06:30:54;;;;;;;11.65;10.55;;;;;;;7.08;77.63;99340.66;4154726;28;20236;-53
2022/03/17 06:32:56;;;;;;;12.27;11.07;;;;;;;7.08;78.23;99337.94;4158608;28;20209;-51
2022/03/17 06:34:58;;;;;;;10.80;9.75;;;;;;;7.07;78.39;99337.09;4159790;28;20201;-52
2022/03/17 06:36:59;;;;;;;12.63;11.30;;;;;;;7.10;78.06;99339.38;4156629;28;20201;-52
2022/03/17 06:39:02;;;;;;;10.38;9.48;;;;;;;7.19;77.72;99345.47;4161451;28;20224;-53
2022/03/17 06:41:04;;;;;;;10.93;9.93;;;;;;;7.14;77.53;99347.97;4144224;28;20233;-52
2022/03/17 06:43:06;;;;;;;11.48;10.32;;;;;;;7.17;77.46;99350.28;4140768;28;20213;-54
2022/03/17 06:45:11;;;;;;;11.05;9.95;;;;;;;7.20;76.74;99356.16;4149289;28;20303;-55
2022/03/17 06:47:12;;;;;;;10.98;9.88;;;;;;;7.24;77.48;99365.59;4158911;28;20679;-52
2022/03/17 06:49:14;;;;;;;9.93;9.02;;;;;;;7.27;77.10;99375.22;4144512;28;20677;-52
2022/03/17 06:51:16;;;;;;;9.43;8.63;;;;;;;7.31;77.50;99371.03;4149217;28;20307;-53
2022/03/17 06:53:21;;;;;;;10.88;9.88;;;;;;;7.30;77.71;99375.63;4145120;28;20243;-53
2022/03/17 06:55:23;;;;;;;11.27;10.30;;;;;;;7.35;77.06;99383.19;4144908;28;20206;-53
2022/03/17 06:57:24;;;;;;;10.23;9.25;;;;;;;7.33;77.63;99379.81;4136248;28;20673;-53
2022/03/17 06:59:26;;;;;;;15.63;10.75;;;;;;;7.35;76.88;99383.19;4151641;28;20709;-52
2022/03/17 07:01:28;;;;;;;10.15;9.25;;;;;;;7.38;77.71;99389.06;4145194;28;20663;-51
2022/03/17 07:03:30;;;;;;;13.27;11.93;;;;;;;7.41;77.28;99390.53;4135894;28;20213;-51
2022/03/17 07:05:31;;;;;;;14.52;10.57;;;;;;;7.44;77.50;99392.81;4145289;28;20248;-51
2022/03/17 07:07:33;;;;;;;14.57;13.23;;;;;;;7.48;77.17;99394.91;4153785;28;20200;-52
2022/03/17 07:09:36;;;;;;;12.93;11.82;;;;;;;7.48;77.54;99400.34;4147194;28;20677;-52
2022/03/17 07:11:38;;;;;;;12.43;11.35;;;;;;;7.49;77.76;99395.75;4146751;28;20283;-53
2022/03/17 07:13:40;;;;;;;12.82;11.57;;;;;;;7.52;77.89;99406.22;4141885;28;20681;-52
2022/03/17 07:15:42;;;;;;;12.00;10.90;;;;;;;7.54;77.52;99409.56;4157769;28;20876;-53
2022/03/17 07:17:47;;;;;;;12.60;11.20;;;;;;;7.56;77.01;99424.66;4161770;28;20200;-53
2022/03/17 07:22:00;;;;;;;11.38;10.38;;;;;;;7.63;77.60;99427.41;4143260;28;20208;-53
2022/03/17 07:24:05;;;;;;;11.23;10.13;;;;;;;7.67;77.70;99431.38;4142843;28;20857;-53
2022/03/17 07:26:07;;;;;;;11.35;10.43;;;;;;;7.68;77.28;99436.59;4141754;28;20232;-52
2022/03/17 07:28:13;;;;;;;10.30;9.40;;;;;;;7.66;76.88;99436.00;4141166;28;20194;-53
2022/03/17 07:36:58;;;;;;;11.23;10.23;;;;;;;7.76;76.87;99457.38;3395984;26;20879;-54
2022/03/17 07:39:04;;;;;;;9.63;8.73;;;;;;;7.80;76.74;99464.06;4134634;28;20212;-54
2022/03/17 07:41:07;;;;;;;11.82;10.65;;;;;;;7.84;76.43;99468.06;4145338;28;20316;-52
2022/03/17 07:43:10;;;;;;;11.15;10.05;;;;;;;7.87;76.72;99468.47;4150733;28;20225;-53
2022/03/17 07:45:13;;;;;;;10.48;9.55;;;;;;;7.86;77.22;99465.94;4144630;28;20669;-53
2022/03/17 07:47:16;;;;;;;11.93;10.75;;;;;;;7.92;76.81;99456.94;4146312;28;20216;-53
2022/03/17 07:49:19;;;;;;;12.02;10.93;;;;;;;7.98;76.62;99467.84;4147035;28;20205;-53
2022/03/17 07:51:21;;;;;;;10.85;9.85;;;;;;;8.01;76.42;99472.06;4145418;28;20276;-54
2022/03/17 07:53:23;;;;;;;11.50;10.45;;;;;;;8.04;76.35;99463.44;4148149;28;20831;-54
2022/03/17 07:55:27;;;;;;;13.07;11.80;;;;;;;8.09;76.10;99474.56;4149960;28;20669;-54
2022/03/17 07:57:28;;;;;;;12.93;11.82;;;;;;;8.15;75.82;99473.72;4153429;28;20254;-54
2022/03/17 07:59:32;;;;;;;12.48;11.27;;;;;;;8.20;76.07;99472.06;4147157;28;20678;-53
2022/03/17 08:01:35;;;;;;;13.65;12.23;;;;;;;8.26;75.81;99473.09;4165218;28;20341;-52
2022/03/17 08:03:39;;;;;;;12.25;11.05;;;;;;;8.09;76.20;99469.09;4144938;28;20221;-54
2022/03/17 08:05:41;;;;;;;11.85;10.80;;;;;;;8.10;75.73;99468.06;4138759;28;20782;-52
2022/03/17 08:07:43;;;;;;;12.63;11.48;;;;;;;8.06;75.94;99469.50;4138281;28;20658;-53
2022/03/17 08:09:45;;;;;;;11.00;9.90;;;;;;;8.07;76.11;99480.22;4125767;28;20276;-53
2022/03/17 08:11:48;;;;;;;12.60;11.30;;;;;;;8.10;76.05;99476.22;4158805;28;20232;-53
2022/03/17 08:13:50;;;;;;;11.77;10.57;;;;;;;8.18;76.05;99484.19;4144540;28;20213;-53
2022/03/17 08:15:52;;;;;;;11.75;10.65;;;;;;;8.28;76.12;99487.38;4141791;28;20221;-53
2022/03/17 08:17:54;;;;;;;15.05;13.50;;;;;;;8.27;76.18;99483.78;4143787;28;20264;-53
2022/03/17 08:19:57;;;;;;;13.38;12.07;;;;;;;8.32;76.03;99491.31;4140292;28;20260;-54
2022/03/17 08:21:59;;;;;;;12.10;11.00;;;;;;;8.32;75.95;99485.88;4143155;28;20216;-53
2022/03/17 08:24:07;;;;;;;13.07;11.82;;;;;;;8.34;75.75;99500.16;4143613;28;20205;-53
2022/03/17 08:26:09;;;;;;;12.77;11.68;;;;;;;8.39;76.01;99503.06;4141367;28;20289;-51
2022/03/17 08:28:11;;;;;;;13.68;12.52;;;;;;;8.51;75.77;99495.91;4156213;28;20208;-54
2022/03/17 08:30:12;;;;;;;16.02;10.52;;;;;;;8.55;75.53;99503.44;4141819;28;20350;-55
2022/03/17 08:32:14;;;;;;;11.93;10.73;;;;;;;8.63;75.56;99505.13;4157808;28;20679;-53
2022/03/17 08:34:16;;;;;;;14.85;12.98;;;;;;;8.71;75.42;99507.63;4139974;28;20263;-52
2022/03/17 08:36:18;;;;;;;23.77;11.02;;;;;;;8.81;75.31;99505.28;4124394;28;20222;-52
2022/03/17 08:38:20;;;;;;;11.93;10.82;;;;;;;8.91;75.42;99505.66;4156191;28;20197;-52
2022/03/17 08:40:22;;;;;;;12.15;11.05;;;;;;;8.85;74.78;99507.38;4156601;28;20237;-52
2022/03/17 08:42:24;;;;;;;11.73;10.77;;;;;;;8.80;73.99;99507.19;4144131;28;20205;-53
2022/03/17 08:44:26;;;;;;;12.18;11.05;;;;;;;8.85;74.45;99510.09;4131327;28;20305;-52
2022/03/17 08:51:13;;;;;;;13.65;12.35;;;;;;;8.99;74.14;99535.44;4136512;28;20221;-52
2022/03/17 08:53:15;;;;;;;11.82;10.73;;;;;;;9.06;73.79;99533.53;4138456;28;20210;-52
2022/03/17 08:55:16;;;;;;;11.70;10.55;;;;;;;9.12;73.61;99532.69;4135751;28;20283;-54
2022/03/17 08:57:18;;;;;;;11.73;10.73;;;;;;;9.19;73.24;99549.88;4136036;28;20686;-52
2022/03/17 08:59:20;;;;;;;13.70;12.40;;;;;;;9.22;73.07;99549.47;4142074;28;20209;-52
2022/03/17 09:01:22;;;;;;;12.05;10.90;;;;;;;9.20;73.27;99559.72;4135781;28;20559;-53
2022/03/17 09:03:25;;;;;;;12.13;11.02;;;;;;;9.22;73.32;99560.38;4145117;28;20252;-53
2022/03/17 09:05:30;;;;;;;12.98;11.65;;;;;;;9.28;73.28;99560.34;4144630;28;20267;-51
2022/03/17 09:07:40;;;;;;;11.48;10.38;;;;;;;9.18;72.97;99561.84;4150596;28;20205;-52
2022/03/17 09:09:46;;;;;;;11.95;10.80;;;;;;;9.25;73.04;99566.25;4144946;28;20292;-53
2022/03/17 09:11:50;;;;;;;12.57;11.48;;;;;;;9.19;73.39;99568.97;4145644;28;20647;-52
2022/03/17 09:13:52;;;;;;;14.02;10.93;;;;;;;9.18;73.43;99565.44;4144210;28;20214;-53
2022/03/17 09:15:56;;;;;;;12.32;11.25;;;;;;;9.20;73.35;99573.38;4146986;28;20217;-53
2022/03/17 09:18:06;;;;;;;12.23;10.88;;;;;;;9.24;73.56;99580.09;4147125;28;20216;-53
2022/03/17 09:20:12;;;;;;;13.05;11.85;;;;;;;9.25;73.99;99579.03;4143348;28;20265;-53
2022/03/17 09:26:43;;;;;;;13.63;12.38;;;;;;;9.31;73.39;99589.13;4070604;29;20233;-84
2022/03/17 09:29:35;;;;;;;11.68;10.63;;;;;;;9.25;72.93;99587.25;4074867;29;20222;-84
2022/03/17 09:31:49;;;;;;;14.48;12.60;;;;;;;9.38;73.03;99598.13;4083022;29;20212;-85
2022/03/17 09:34:07;;;;;;;12.05;10.88;;;;;;;9.34;72.78;99596.91;4073564;28;20209;-85
2022/03/17 09:36:50;;;;;;;12.05;10.82;;;;;;;9.39;72.85;99599.78;4124537;28;20257;-84
2022/03/17 09:42:05;;;;;;;11.10;10.10;;;;;;;9.30;72.87;99596.50;4110021;28;20210;-85
2022/03/17 09:44:32;;;;;;;12.95;11.80;;;;;;;9.32;72.82;99601.72;4061132;29;20233;-84
2022/03/17 09:50:35;;;;;;;14.02;12.30;;;;;;;9.41;71.96;99608.63;4032713;29;20193;-86
2022/03/17 09:53:21;;;;;;;13.07;11.80;;;;;;;9.36;72.06;99606.53;4025018;29;20657;-85
2022/03/17 09:56:11;;;;;;;;;;;;;;;;;;;;;
2022/03/17 09:58:23;;;;;;;12.15;10.98;;;;;;;9.27;72.17;99621.47;4047866;29;20217;-86
2022/03/17 10:00:49;;;;;;;12.73;11.52;;;;;;;9.22;72.78;99625.91;4031285;29;20469;-85
2022/03/17 10:03:05;;;;;;;10.75;9.82;;;;;;;9.23;72.16;99630.31;4028518;29;20311;-85
2022/03/17 10:05:11;;;;;;;12.65;11.50;;;;;;;9.30;72.38;99628.41;4024699;29;20729;-84
2022/03/17 10:07:14;;;;;;;12.32;11.13;;;;;;;9.25;72.61;99630.94;4035594;29;20229;-84
2022/03/17 10:09:19;;;;;;;14.68;12.07;;;;;;;9.25;72.75;99641.88;4098652;28;20220;-86
2022/03/17 10:11:37;;;;;;;13.70;12.43;;;;;;;9.25;72.61;99642.72;4089329;28;20300;-85
2022/03/17 10:13:50;;;;;;;12.65;11.55;;;;;;;9.27;72.65;99650.69;4118477;28;20784;-85
2022/03/17 10:16:17;;;;;;;12.48;11.18;;;;;;;9.29;72.91;99659.50;4122360;28;20212;-85